Time;durP1;ratioP1;P1;durP2;ratioP2;P2;SDS_P1;SDS_P2;PMS_P1;PMS_P2;Temp;Humidity;BMP_temperature;BMP_pressure;BME280_temperature;BME280_humidity;BME280_pressure;Samples;Min_cycle;Max_cycle;Signal;HPM_P1;HPM_P2
2022/08/26 00:02:07;;;;;;;3.33;2.63;;;;;;;-145.06;100.00;60892.56;4831402;28;20030;-88
2022/08/26 00:04:46;;;;;;;3.85;3.22;;;;;;;-145.06;100.00;60892.56;4826974;28;20038;-88
2022/08/26 00:07:26;;;;;;;3.47;2.55;;;;;;;-145.06;100.00;60892.56;4832289;28;20045;-88
2022/08/26 00:10:06;;;;;;;2.47;2.28;;;;;;;-145.06;100.00;60892.56;4829435;28;20539;-88
2022/08/26 00:12:45;;;;;;;;;;;;;;;-145.06;100.00;60892.56;4831507;28;20025;-88
2022/08/26 00:15:24;;;;;;;2.60;2.22;;;;;;;-145.06;100.00;60892.56;4827206;28;20004;-88
2022/08/26 00:18:03;;;;;;;2.60;2.35;;;;;;;-145.06;100.00;60892.56;4830873;28;20121;-88
2022/08/26 00:20:42;;;;;;;3.75;2.90;;;;;;;-145.06;100.00;60892.56;4833101;28;20030;-88
2022/08/26 00:23:21;;;;;;;3.47;3.05;;;;;;;-145.06;100.00;60892.56;4830640;28;20033;-87
2022/08/26 00:26:00;;;;;;;3.60;3.03;;;;;;;-145.06;100.00;60892.56;4831829;28;20117;-87
2022/08/26 00:28:40;;;;;;;2.85;2.55;;;;;;;-145.06;100.00;60892.56;4839738;28;20033;-89
2022/08/26 00:31:19;;;;;;;4.68;3.20;;;;;;;-145.06;100.00;60892.56;4838412;28;20038;-88
2022/08/26 00:33:58;;;;;;;3.58;2.83;;;;;;;-145.06;100.00;60892.56;4835936;28;20116;-88
2022/08/26 00:36:38;;;;;;;3.20;2.65;;;;;;;-145.06;100.00;60892.56;4854386;28;20034;-88
2022/08/26 00:39:18;;;;;;;4.07;2.95;;;;;;;-145.06;100.00;60892.56;4836324;28;20625;-88
2022/08/26 00:41:57;;;;;;;3.00;2.42;;;;;;;-145.06;100.00;60892.56;4835943;28;20423;-89
2022/08/26 00:44:36;;;;;;;3.58;2.65;;;;;;;-145.06;100.00;60892.56;4824646;28;20640;-88
2022/08/26 00:47:22;;;;;;;2.78;2.55;;;;;;;-145.06;100.00;60892.56;4835874;28;20038;-88
2022/08/26 00:50:09;;;;;;;4.35;2.90;;;;;;;-145.06;100.00;60892.56;4858498;28;20026;-88
2022/08/26 00:52:50;;;;;;;2.97;2.38;;;;;;;-145.06;100.00;60892.56;4838621;28;20045;-88
2022/08/26 00:55:34;;;;;;;3.83;2.80;;;;;;;-145.06;100.00;60892.56;4833592;28;20033;-88
2022/08/26 00:58:14;;;;;;;5.72;2.83;;;;;;;-145.06;100.00;60892.56;4837495;28;20034;-88
2022/08/26 01:00:53;;;;;;;;;;;;;;;-145.06;100.00;60892.56;4837000;28;20033;-88
2022/08/26 01:03:33;;;;;;;2.47;2.25;;;;;;;-145.06;100.00;60892.56;4844015;28;20514;-88
2022/08/26 01:06:13;;;;;;;2.60;2.30;;;;;;;-145.06;100.00;60892.56;4834896;28;20053;-88
2022/08/26 01:08:52;;;;;;;3.58;2.78;;;;;;;-145.06;100.00;60892.56;4835768;28;20029;-88
2022/08/26 01:11:33;;;;;;;2.88;2.00;;;;;;;-145.06;100.00;60892.56;4835076;28;20061;-87
2022/08/26 01:14:13;;;;;;;3.15;2.65;;;;;;;-145.06;100.00;60892.56;4835504;28;20131;-88
2022/08/26 01:16:52;;;;;;;4.05;2.80;;;;;;;-145.06;100.00;60892.56;4835788;28;20038;-88
2022/08/26 01:19:39;;;;;;;5.60;2.78;;;;;;;-145.06;100.00;60892.56;4839838;28;20042;-89
2022/08/26 01:22:38;;;;;;;2.97;2.40;;;;;;;-145.06;100.00;60892.56;4831068;28;20034;-87
2022/08/26 01:25:19;;;;;;;3.42;2.83;;;;;;;-145.06;100.00;60892.56;4843600;28;20053;-88
2022/08/26 01:28:04;;;;;;;3.40;2.95;;;;;;;-145.06;100.00;60892.56;4835083;28;20025;-88
2022/08/26 01:30:45;;;;;;;3.72;3.00;;;;;;;-145.06;100.00;60892.56;4835453;28;20038;-87
2022/08/26 01:33:33;;;;;;;3.83;3.00;;;;;;;-145.06;100.00;60892.56;4835263;28;20034;-88
2022/08/26 01:36:13;;;;;;;2.92;2.55;;;;;;;-145.06;100.00;60892.56;4835780;28;20038;-89
2022/08/26 01:38:53;;;;;;;2.92;2.63;;;;;;;-145.06;100.00;60892.56;4838311;28;20065;-87
2022/08/26 01:41:32;;;;;;;3.33;2.90;;;;;;;-145.06;100.00;60892.56;4828923;28;20021;-88
2022/08/26 01:44:16;;;;;;;3.55;2.53;;;;;;;-145.06;100.00;60892.56;4839849;28;20037;-87
2022/08/26 01:46:57;;;;;;;4.05;2.97;;;;;;;-145.06;100.00;60892.56;4835436;28;20034;-88
2022/08/26 01:49:37;;;;;;;2.92;2.33;;;;;;;-145.06;100.00;60892.56;4829704;28;20029;-88
2022/08/26 01:52:22;;;;;;;2.08;1.88;;;;;;;-145.06;100.00;60892.56;4847359;28;20026;-88
2022/08/26 01:55:01;;;;;;;4.55;3.00;;;;;;;-145.06;100.00;60892.56;4835337;28;20037;-87
2022/08/26 01:57:43;;;;;;;4.03;2.72;;;;;;;-145.06;100.00;60892.56;4834240;28;20038;-88
2022/08/26 02:00:24;;;;;;;6.88;3.30;;;;;;;-145.06;100.00;60892.56;4833593;28;20065;-87
2022/08/26 02:03:17;;;;;;;2.97;2.40;;;;;;;-145.06;100.00;60892.56;4832071;28;20029;-87
2022/08/26 02:06:00;;;;;;;3.45;2.47;;;;;;;-145.06;100.00;60892.56;4834664;28;20061;-88
2022/08/26 02:08:50;;;;;;;3.50;3.00;;;;;;;-145.06;100.00;60892.56;4829840;28;20029;-88
2022/08/26 02:11:30;;;;;;;2.55;2.20;;;;;;;-145.06;100.00;60892.56;4832857;28;20034;-88
2022/08/26 02:14:14;;;;;;;2.42;2.10;;;;;;;-145.06;100.00;60892.56;4829639;28;20105;-89
2022/08/26 02:16:54;;;;;;;3.45;2.55;;;;;;;-145.06;100.00;60892.56;4839695;28;20124;-88
2022/08/26 02:19:39;;;;;;;3.22;2.50;;;;;;;-145.06;100.00;60892.56;4855646;28;20041;-89
2022/08/26 02:22:22;;;;;;;2.50;2.08;;;;;;;-145.06;100.00;60892.56;4834642;28;20476;-88
2022/08/26 02:25:22;;;;;;;2.70;1.90;;;;;;;-145.06;100.00;60892.56;4828274;28;20109;-88
2022/08/26 02:28:01;;;;;;;3.30;2.40;;;;;;;-145.06;100.00;60892.56;4831001;28;20033;-88
2022/08/26 02:30:40;;;;;;;4.80;2.33;;;;;;;-145.06;100.00;60892.56;4827130;28;20034;-88
2022/08/26 02:33:19;;;;;;;3.30;2.17;;;;;;;-145.06;100.00;60892.56;4833678;28;20034;-88
2022/08/26 02:35:58;;;;;;;2.92;2.25;;;;;;;-145.06;100.00;60892.56;4837029;28;20037;-87
2022/08/26 02:38:37;;;;;;;3.83;2.78;;;;;;;-145.06;100.00;60892.56;4832242;28;20033;-88
2022/08/26 02:41:16;;;;;;;3.40;2.37;;;;;;;-145.06;100.00;60892.56;4832586;28;20018;-87
2022/08/26 02:43:56;;;;;;;3.55;2.53;;;;;;;-145.06;100.00;60892.56;4827827;28;20317;-88
2022/08/26 02:46:35;;;;;;;2.65;2.28;;;;;;;-145.06;100.00;60892.56;4831848;28;20046;-88
2022/08/26 02:49:15;;;;;;;2.78;2.03;;;;;;;-145.06;100.00;60892.56;4829226;28;20369;-88
2022/08/26 02:51:54;;;;;;;2.55;2.03;;;;;;;-145.06;100.00;60892.56;4834502;28;20034;-87
2022/08/26 02:54:33;;;;;;;2.60;2.20;;;;;;;-145.06;100.00;60892.56;4835652;28;20277;-86
2022/08/26 02:57:13;;;;;;;1.52;1.42;;;;;;;-145.06;100.00;60892.56;4832328;28;20022;-88
2022/08/26 02:59:52;;;;;;;2.65;1.50;;;;;;;-145.06;100.00;60892.56;4834087;28;20069;-87
2022/08/26 03:02:31;;;;;;;1.60;1.50;;;;;;;-145.06;100.00;60892.56;4827684;28;20030;-88
2022/08/26 03:05:11;;;;;;;2.25;1.77;;;;;;;-145.06;100.00;60892.56;4830152;28;20038;-88
2022/08/26 03:07:51;;;;;;;3.08;2.05;;;;;;;-145.06;100.00;60892.56;4837642;28;20030;-88
2022/08/26 03:10:31;;;;;;;1.95;1.40;;;;;;;-145.06;100.00;60892.56;4830000;28;20116;-87
2022/08/26 03:13:09;;;;;;;1.70;1.60;;;;;;;-145.06;100.00;60892.56;4830505;28;20041;-88
2022/08/26 03:15:48;;;;;;;2.35;1.70;;;;;;;-145.06;100.00;60892.56;4834365;28;20041;-88
2022/08/26 03:18:27;;;;;;;4.63;1.88;;;;;;;-145.06;100.00;60892.56;4837832;28;20532;-88
2022/08/26 03:21:10;;;;;;;2.92;1.75;;;;;;;-145.06;100.00;60892.56;4829294;28;20033;-89
2022/08/26 03:23:49;;;;;;;3.08;2.00;;;;;;;-145.06;100.00;60892.56;4829052;28;20033;-87
2022/08/26 03:26:28;;;;;;;2.10;1.58;;;;;;;-145.06;100.00;60892.56;4828305;28;20030;-88
2022/08/26 03:32:06;;;;;;;2.10;1.60;;;;;;;-145.06;100.00;60892.56;4832797;28;20033;-88
2022/08/26 03:34:45;;;;;;;1.92;1.70;;;;;;;-145.06;100.00;60892.56;4833054;28;20376;-88
2022/08/26 03:37:24;;;;;;;;;;;;;;;-145.06;100.00;60892.56;4834075;28;20611;-89
2022/08/26 03:40:06;;;;;;;1.77;1.25;;;;;;;-145.06;100.00;60892.56;4829659;28;19917;-87
2022/08/26 03:42:46;;;;;;;3.03;1.50;;;;;;;-145.06;100.00;60892.56;4833429;28;20030;-88
2022/08/26 03:45:25;;;;;;;2.72;1.45;;;;;;;-145.06;100.00;60892.56;4833818;28;20389;-87
2022/08/26 03:48:05;;;;;;;2.10;1.23;;;;;;;-145.06;100.00;60892.56;4836070;28;20065;-87
2022/08/26 03:50:44;;;;;;;1.48;1.33;;;;;;;-145.06;100.00;60892.56;4832298;28;20034;-88
2022/08/26 03:53:23;;;;;;;3.88;1.50;;;;;;;-145.06;100.00;60892.56;4835966;28;20037;-87
2022/08/26 03:56:02;;;;;;;1.33;1.23;;;;;;;-145.06;100.00;60892.56;4829998;28;20030;-88
2022/08/26 03:58:43;;;;;;;1.88;1.38;;;;;;;-145.06;100.00;60892.56;4832837;28;20037;-89
2022/08/26 04:01:22;;;;;;;2.08;1.65;;;;;;;-145.06;100.00;60892.56;4828142;28;20385;-88
2022/08/26 04:04:02;;;;;;;4.90;1.50;;;;;;;-145.06;100.00;60892.56;4833569;28;20038;-87
2022/08/26 04:06:44;;;;;;;1.20;1.08;;;;;;;-145.06;100.00;60892.56;4835304;28;20026;-87
2022/08/26 04:09:24;;;;;;;2.55;1.27;;;;;;;-145.06;100.00;60892.56;4832427;28;20034;-88
2022/08/26 04:12:04;;;;;;;1.08;0.95;;;;;;;-145.06;100.00;60892.56;4828543;28;20389;-88
2022/08/26 04:14:43;;;;;;;2.88;1.50;;;;;;;-145.06;100.00;60892.56;4833504;28;20050;-88
2022/08/26 04:17:24;;;;;;;1.83;1.13;;;;;;;-145.06;100.00;60892.56;4832997;28;20034;-87
2022/08/26 04:20:05;;;;;;;1.30;1.20;;;;;;;-145.06;100.00;60892.56;4830052;28;20042;-87
2022/08/26 04:22:44;;;;;;;1.85;1.30;;;;;;;-145.06;100.00;60892.56;4832586;28;20030;-88
2022/08/26 04:25:24;;;;;;;1.98;0.98;;;;;;;-145.06;100.00;60892.56;4838273;28;20025;-89
2022/08/26 04:28:03;;;;;;;3.45;1.50;;;;;;;-145.06;100.00;60892.56;4836261;28;20500;-89
2022/08/26 04:30:42;;;;;;;1.58;0.90;;;;;;;-145.06;100.00;60892.56;4831808;28;20037;-89
2022/08/26 04:33:21;;;;;;;2.15;1.13;;;;;;;-145.06;100.00;60892.56;4831617;28;20042;-89
2022/08/26 04:36:02;;;;;;;1.38;1.17;;;;;;;-145.06;100.00;60892.56;4828156;28;20030;-88
2022/08/26 04:38:41;;;;;;;1.50;1.17;;;;;;;-145.06;100.00;60892.56;4830386;28;20030;-89
2022/08/26 04:41:20;;;;;;;1.42;0.90;;;;;;;-145.06;100.00;60892.56;4824705;28;20026;-88
2022/08/26 04:44:00;;;;;;;1.40;1.00;;;;;;;-145.06;100.00;60892.56;4826730;28;20632;-87
2022/08/26 04:46:40;;;;;;;1.30;0.80;;;;;;;-145.06;100.00;60892.56;4828630;28;20590;-88
2022/08/26 04:49:19;;;;;;;1.40;0.95;;;;;;;-145.06;100.00;60892.56;4824080;28;20038;-89
2022/08/26 04:51:58;;;;;;;1.00;0.73;;;;;;;-145.06;100.00;60892.56;4824890;28;20037;-88
2022/08/26 04:54:38;;;;;;;1.65;1.02;;;;;;;-145.06;100.00;60892.56;4829875;28;20033;-88
2022/08/26 04:57:17;;;;;;;1.27;0.90;;;;;;;-145.06;100.00;60892.56;4827480;28;20125;-87
2022/08/26 04:59:56;;;;;;;1.42;1.00;;;;;;;-145.06;100.00;60892.56;4832390;28;20065;-88
2022/08/26 05:02:36;;;;;;;2.28;1.00;;;;;;;-145.06;100.00;60892.56;4828936;28;20022;-88
2022/08/26 05:05:15;;;;;;;1.38;0.80;;;;;;;-145.06;100.00;60892.56;4861003;28;20025;-88
2022/08/26 05:07:54;;;;;;;1.80;1.08;;;;;;;-145.06;100.00;60892.56;4832716;28;20447;-87
2022/08/26 05:10:35;;;;;;;1.23;0.90;;;;;;;-145.06;100.00;60892.56;4827567;28;20041;-87
2022/08/26 05:13:17;;;;;;;1.60;1.02;;;;;;;-145.06;100.00;60892.56;4829657;28;20034;-88
2022/08/26 05:16:02;;;;;;;1.50;0.77;;;;;;;-145.06;100.00;60892.56;4832983;28;20061;-87
2022/08/26 05:18:43;;;;;;;2.10;0.90;;;;;;;-145.06;100.00;60892.56;4832111;28;20030;-88
2022/08/26 05:21:25;;;;;;;1.77;1.00;;;;;;;-145.06;100.00;60892.56;4831137;28;20138;-87
2022/08/26 05:24:04;;;;;;;1.10;0.90;;;;;;;-145.06;100.00;60892.56;4828424;28;20049;-89
2022/08/26 05:26:45;;;;;;;1.38;0.95;;;;;;;-145.06;100.00;60892.56;4827088;28;20578;-88
2022/08/26 05:29:24;;;;;;;1.73;1.10;;;;;;;-145.06;100.00;60892.56;4829301;28;20389;-88
2022/08/26 05:32:04;;;;;;;1.50;0.80;;;;;;;-145.06;100.00;60892.56;4857525;28;20065;-88
2022/08/26 05:34:43;;;;;;;0.95;0.90;;;;;;;-145.06;100.00;60892.56;4830166;28;20116;-88
2022/08/26 05:37:22;;;;;;;1.55;0.75;;;;;;;-145.06;100.00;60892.56;4826905;28;20034;-88
2022/08/26 05:40:04;;;;;;;1.45;0.88;;;;;;;-145.06;100.00;60892.56;4826209;28;20065;-89
2022/08/26 05:42:46;;;;;;;2.00;0.90;;;;;;;-145.06;100.00;60892.56;4828769;28;20030;-88
2022/08/26 05:45:26;;;;;;;1.45;0.90;;;;;;;-145.06;100.00;60892.56;4830947;28;20033;-87
2022/08/26 05:48:07;;;;;;;1.50;0.90;;;;;;;-145.06;100.00;60892.56;4831006;28;20515;-88
2022/08/26 05:50:48;;;;;;;1.30;0.90;;;;;;;-145.06;100.00;60892.56;4853541;28;20420;-87
2022/08/26 05:53:27;;;;;;;1.63;0.93;;;;;;;-145.06;100.00;60892.56;4826665;28;20030;-88
2022/08/26 05:56:08;;;;;;;1.15;0.77;;;;;;;-145.06;100.00;60892.56;4833403;28;20034;-87
2022/08/26 05:58:47;;;;;;;0.95;0.82;;;;;;;-145.06;100.00;60892.56;4841385;28;20306;-89
2022/08/26 06:01:28;;;;;;;1.08;0.75;;;;;;;-145.06;100.00;60892.56;4829104;28;20033;-88
2022/08/26 06:04:07;;;;;;;0.98;0.80;;;;;;;-145.06;100.00;60892.56;4831301;28;20033;-88
2022/08/26 06:06:46;;;;;;;1.30;0.85;;;;;;;-145.06;100.00;60892.56;4831348;28;20041;-88
2022/08/26 06:09:26;;;;;;;1.30;0.85;;;;;;;-145.06;100.00;60892.56;4829903;28;20433;-87
2022/08/26 06:12:05;;;;;;;0.93;0.82;;;;;;;-145.06;100.00;60892.56;4830600;28;20026;-89
2022/08/26 06:14:44;;;;;;;1.60;1.00;;;;;;;-145.06;100.00;60892.56;4828091;28;20361;-90
2022/08/26 06:17:23;;;;;;;1.25;0.95;;;;;;;-145.06;100.00;60892.56;4832757;28;20492;-88
2022/08/26 06:20:03;;;;;;;1.20;0.85;;;;;;;-145.06;100.00;60892.56;4830498;28;20377;-88
2022/08/26 06:25:40;;;;;;;2.45;1.05;;;;;;;-145.06;100.00;60892.56;4828881;28;20037;-87
2022/08/26 06:28:19;;;;;;;0.98;0.88;;;;;;;-145.06;100.00;60892.56;4832384;28;20026;-88
2022/08/26 06:31:01;;;;;;;0.90;0.73;;;;;;;-145.06;100.00;60892.56;4835551;28;20460;-89
2022/08/26 06:33:41;;;;;;;0.80;0.80;;;;;;;-145.06;100.00;60892.56;4833957;28;20514;-88
2022/08/26 06:36:26;;;;;;;1.75;1.02;;;;;;;-145.06;100.00;60892.56;4838130;28;20377;-89
2022/08/26 06:39:08;;;;;;;1.20;0.90;;;;;;;-145.06;100.00;60892.56;4831170;28;20030;-88
2022/08/26 06:41:48;;;;;;;0.68;0.68;;;;;;;-145.06;100.00;60892.56;4830382;28;20030;-89
2022/08/26 06:44:27;;;;;;;1.83;0.93;;;;;;;-145.06;100.00;60892.56;4834114;28;20623;-89
2022/08/26 06:47:06;;;;;;;1.00;0.80;;;;;;;-145.06;100.00;60892.56;4816959;28;20484;-89
2022/08/26 06:49:45;;;;;;;1.30;1.10;;;;;;;-145.06;100.00;60892.56;4833337;28;20014;-87
2022/08/26 06:52:24;;;;;;;1.23;0.90;;;;;;;-145.06;100.00;60892.56;4834653;28;20413;-88
2022/08/26 06:55:04;;;;;;;1.15;1.00;;;;;;;-145.06;100.00;60892.56;4832512;28;20034;-88
2022/08/26 06:57:42;;;;;;;1.10;1.00;;;;;;;-145.06;100.00;60892.56;4816819;28;20592;-88
2022/08/26 07:00:22;;;;;;;1.10;0.82;;;;;;;-145.06;100.00;60892.56;4821341;28;20065;-89
2022/08/26 07:03:02;;;;;;;1.83;1.00;;;;;;;-145.06;100.00;60892.56;4836446;28;20038;-89
2022/08/26 07:05:41;;;;;;;1.50;1.10;;;;;;;-145.06;100.00;60892.56;4835935;28;20785;-88
2022/08/26 07:08:21;;;;;;;1.77;1.10;;;;;;;-145.06;100.00;60892.56;4847596;28;20108;-88
2022/08/26 07:11:04;;;;;;;1.65;0.98;;;;;;;-145.06;100.00;60892.56;4836100;28;20373;-88
2022/08/26 07:13:43;;;;;;;1.45;1.10;;;;;;;-145.06;100.00;60892.56;4841042;28;20030;-89
2022/08/26 07:16:23;;;;;;;1.23;0.70;;;;;;;-145.06;100.00;60892.56;4817034;28;20038;-88
2022/08/26 07:19:02;;;;;;;1.23;0.93;;;;;;;-145.06;100.00;60892.56;4827486;28;20038;-88
2022/08/26 07:21:41;;;;;;;1.87;0.90;;;;;;;-145.06;100.00;60892.56;4823406;28;20513;-88
2022/08/26 07:24:20;;;;;;;0.82;0.82;;;;;;;-145.06;100.00;60892.56;4831313;28;20961;-87
2022/08/26 07:27:01;;;;;;;0.70;0.70;;;;;;;-145.06;100.00;60892.56;4855466;28;20056;-88
2022/08/26 07:29:42;;;;;;;1.33;0.75;;;;;;;-145.06;100.00;60892.56;4826185;28;20057;-88
2022/08/26 07:32:21;;;;;;;1.17;0.77;;;;;;;-145.06;100.00;60892.56;4842103;28;20034;-88
2022/08/26 07:35:00;;;;;;;1.00;0.90;;;;;;;-145.06;100.00;60892.56;4843829;28;20057;-88
2022/08/26 07:37:39;;;;;;;1.63;0.90;;;;;;;-145.06;100.00;60892.56;4834266;28;20041;-88
2022/08/26 07:40:19;;;;;;;1.48;0.77;;;;;;;-145.06;100.00;60892.56;4833757;28;20101;-88
2022/08/26 07:42:58;;;;;;;1.17;0.82;;;;;;;-145.06;100.00;60892.56;4873671;28;20121;-89
2022/08/26 07:45:37;;;;;;;2.25;0.70;;;;;;;-145.06;100.00;60892.56;4835431;28;20483;-88
2022/08/26 07:48:16;;;;;;;1.73;0.85;;;;;;;-145.06;100.00;60892.56;4844263;28;20380;-88
2022/08/26 07:50:56;;;;;;;1.00;0.70;;;;;;;-145.06;100.00;60892.56;4842822;28;20029;-88
2022/08/26 07:53:35;;;;;;;0.80;0.70;;;;;;;-145.06;100.00;60892.56;4833583;28;20037;-88
2022/08/26 07:56:14;;;;;;;1.27;0.77;;;;;;;-145.06;100.00;60892.56;4832855;28;20118;-88
2022/08/26 07:58:53;;;;;;;0.90;0.70;;;;;;;-145.06;100.00;60892.56;4834030;28;20377;-88
2022/08/26 08:01:33;;;;;;;0.80;0.60;;;;;;;-145.06;100.00;60892.56;4826820;28;20038;-88
2022/08/26 08:04:13;;;;;;;1.75;0.80;;;;;;;-145.06;100.00;60892.56;4834717;28;20030;-88
2022/08/26 08:06:54;;;;;;;0.77;0.60;;;;;;;-145.06;100.00;60892.56;4833400;28;20037;-88
2022/08/26 08:09:33;;;;;;;1.02;0.70;;;;;;;-145.06;100.00;60892.56;4833157;28;20519;-89
2022/08/26 08:12:12;;;;;;;1.55;0.60;;;;;;;-145.06;100.00;60892.56;4834643;28;20117;-88
2022/08/26 08:14:51;;;;;;;0.88;0.77;;;;;;;-145.06;100.00;60892.56;4833073;28;20041;-89
2022/08/26 08:17:30;;;;;;;1.00;0.50;;;;;;;-145.06;100.00;60892.56;4833502;28;20030;-88
2022/08/26 08:20:09;;;;;;;1.05;0.50;;;;;;;-145.06;100.00;60892.56;4833653;28;20057;-88
2022/08/26 08:22:49;;;;;;;1.02;0.63;;;;;;;-145.06;100.00;60892.56;4828372;28;20025;-88
2022/08/26 08:25:29;;;;;;;1.20;0.50;;;;;;;-145.06;100.00;60892.56;4844999;28;20037;-88
2022/08/26 08:28:08;;;;;;;1.15;0.60;;;;;;;-145.06;100.00;60892.56;4834393;28;20026;-88
2022/08/26 08:30:47;;;;;;;0.60;0.55;;;;;;;-145.06;100.00;60892.56;4836821;28;20029;-89
2022/08/26 08:33:29;;;;;;;1.05;0.50;;;;;;;-145.06;100.00;60892.56;4831836;28;20606;-88
2022/08/26 08:36:08;;;;;;;0.93;0.50;;;;;;;-145.06;100.00;60892.56;4842890;28;20048;-89
2022/08/26 08:38:47;;;;;;;1.98;1.05;;;;;;;-145.06;100.00;60892.56;4828358;28;20026;-88
2022/08/26 08:41:36;;;;;;;1.40;0.60;;;;;;;-145.06;100.00;60892.56;4881077;28;20025;-88
2022/08/26 08:44:21;;;;;;;0.60;0.50;;;;;;;-145.06;100.00;60892.56;4838904;28;20029;-88
2022/08/26 08:47:04;;;;;;;0.85;0.50;;;;;;;-145.06;100.00;60892.56;4834538;28;20034;-88
2022/08/26 08:49:44;;;;;;;0.50;0.40;;;;;;;-145.06;100.00;60892.56;4837902;28;20034;-88
2022/08/26 08:52:36;;;;;;;0.70;0.60;;;;;;;-145.06;100.00;60892.56;4837489;28;20022;-87
2022/08/26 08:55:15;;;;;;;0.57;0.52;;;;;;;-145.06;100.00;60892.56;4843696;28;20535;-89
2022/08/26 08:58:08;;;;;;;1.45;0.60;;;;;;;-145.06;100.00;60892.56;4845059;28;20033;-89
2022/08/26 09:00:56;;;;;;;1.33;0.60;;;;;;;-145.06;100.00;60892.56;4834619;28;20373;-89
2022/08/26 09:04:10;;;;;;;2.08;0.60;;;;;;;-145.06;100.00;60892.56;4832478;28;20038;-89
2022/08/26 09:06:54;;;;;;;1.73;0.60;;;;;;;-145.06;100.00;60892.56;4839805;28;20029;-90
2022/08/26 09:09:40;;;;;;;0.68;0.50;;;;;;;-145.06;100.00;60892.56;4829516;28;20033;-89
2022/08/26 09:12:24;;;;;;;0.68;0.52;;;;;;;-145.06;100.00;60892.56;4845263;28;20025;-89
2022/08/26 09:15:25;;;;;;;1.55;0.50;;;;;;;-145.06;100.00;60892.56;4845703;28;20033;-89
2022/08/26 09:18:26;;;;;;;2.05;0.70;;;;;;;-145.06;100.00;60892.56;4836851;28;20034;-89
2022/08/26 09:21:09;;;;;;;1.50;0.50;;;;;;;-145.06;100.00;60892.56;4836339;28;20105;-90
2022/08/26 09:23:49;;;;;;;0.73;0.50;;;;;;;-145.06;100.00;60892.56;4819571;28;20484;-89
2022/08/26 09:26:37;;;;;;;1.13;0.60;;;;;;;-145.06;100.00;60892.56;4835033;28;20045;-91
2022/08/26 09:29:24;;;;;;;0.50;0.50;;;;;;;-145.06;100.00;60892.56;4824123;28;20487;-88
2022/08/26 09:32:20;;;;;;;0.82;0.47;;;;;;;-145.06;100.00;60892.56;4836313;28;20029;-89
2022/08/26 09:35:09;;;;;;;0.52;0.38;;;;;;;-145.06;100.00;60892.56;4838304;28;20025;-87
2022/08/26 09:37:48;;;;;;;0.45;0.38;;;;;;;-145.06;100.00;60892.56;4836892;28;20034;-88
2022/08/26 09:40:33;;;;;;;0.37;0.37;;;;;;;-145.06;100.00;60892.56;4836191;28;20038;-90
2022/08/26 09:43:18;;;;;;;0.55;0.52;;;;;;;-145.06;100.00;60892.56;4837182;28;20667;-89
2022/08/26 09:46:18;;;;;;;0.57;0.40;;;;;;;-145.06;100.00;60892.56;4837208;28;20369;-89
2022/08/26 09:49:19;;;;;;;0.88;0.70;;;;;;;-145.06;100.00;60892.56;4841609;28;20037;-90
2022/08/26 09:52:34;;;;;;;0.90;0.45;;;;;;;-145.06;100.00;60892.56;4835098;28;20034;-89
2022/08/26 09:55:21;;;;;;;0.85;0.50;;;;;;;-145.06;100.00;60892.56;4791202;28;20034;-90
2022/08/26 09:58:00;;;;;;;0.80;0.60;;;;;;;-145.06;100.00;60892.56;4843347;28;20033;-89
2022/08/26 10:00:51;;;;;;;0.60;0.50;;;;;;;-145.06;100.00;60892.56;4841745;28;20025;-89
2022/08/26 10:03:34;;;;;;;0.82;0.43;;;;;;;-145.06;100.00;60892.56;4835978;28;20038;-90
2022/08/26 10:06:15;;;;;;;0.70;0.47;;;;;;;-145.06;100.00;60892.56;4835926;28;20882;-89
2022/08/26 10:08:58;;;;;;;0.52;0.40;;;;;;;-145.06;100.00;60892.56;4835479;28;20033;-89
2022/08/26 10:11:43;;;;;;;0.73;0.40;;;;;;;-145.06;100.00;60892.56;4836424;28;20022;-90
2022/08/26 10:14:31;;;;;;;0.40;0.30;;;;;;;-145.06;100.00;60892.56;4835980;28;20037;-89
2022/08/26 10:17:18;;;;;;;1.27;0.60;;;;;;;-145.06;100.00;60892.56;4836245;28;20038;-89
2022/08/26 10:20:07;;;;;;;0.77;0.50;;;;;;;-145.06;100.00;60892.56;4836070;28;20034;-89
2022/08/26 10:23:11;;;;;;;0.80;0.40;;;;;;;-145.06;100.00;60892.56;4833124;28;20030;-90
2022/08/26 10:26:04;;;;;;;0.70;0.40;;;;;;;-145.06;100.00;60892.56;4824377;28;20030;-89
2022/08/26 10:29:07;;;;;;;0.75;0.40;;;;;;;-145.06;100.00;60892.56;4842542;28;20029;-90
2022/08/26 10:31:58;;;;;;;1.25;0.63;;;;;;;-145.06;100.00;60892.56;4836292;28;20642;-89
2022/08/26 10:34:38;;;;;;;0.45;0.40;;;;;;;-145.06;100.00;60892.56;4825454;28;20069;-89
2022/08/26 10:37:20;;;;;;;0.38;0.38;;;;;;;-145.06;100.00;60892.56;4833024;28;20038;-88
2022/08/26 10:40:03;;;;;;;1.30;0.40;;;;;;;-145.06;100.00;60892.56;4834840;28;20029;-89
2022/08/26 10:42:55;;;;;;;0.47;0.40;;;;;;;-145.06;100.00;60892.56;4838604;28;20026;-88
2022/08/26 10:45:41;;;;;;;0.60;0.40;;;;;;;-145.06;100.00;60892.56;4826442;28;20112;-88
2022/08/26 10:48:23;;;;;;;0.80;0.57;;;;;;;-145.06;100.00;60892.56;4842041;28;20496;-88
2022/08/26 10:51:03;;;;;;;0.68;0.30;;;;;;;-145.06;100.00;60892.56;4833549;28;20045;-89
2022/08/26 10:53:54;;;;;;;1.70;0.55;;;;;;;-145.06;100.00;60892.56;4833476;28;20029;-89
2022/08/26 10:57:03;;;;;;;0.70;0.43;;;;;;;-145.06;100.00;60892.56;4830043;28;20033;-90
2022/08/26 10:59:57;;;;;;;0.50;0.37;;;;;;;-145.06;100.00;60892.56;4837406;28;20022;-91
2022/08/26 11:02:47;;;;;;;0.90;0.43;;;;;;;-145.06;100.00;60892.56;4834781;28;20034;-90
2022/08/26 11:05:25;;;;;;;0.30;0.30;;;;;;;-145.06;100.00;60892.56;4821877;28;20038;-91
2022/08/26 11:08:20;;;;;;;0.55;0.40;;;;;;;-145.06;100.00;60892.56;4838169;28;20483;-89
2022/08/26 11:10:59;;;;;;;0.60;0.40;;;;;;;-145.06;100.00;60892.56;4850474;28;20026;-90
2022/08/26 11:13:59;;;;;;;0.55;0.30;;;;;;;-145.06;100.00;60892.56;4834271;28;20038;-90
2022/08/26 11:16:44;;;;;;;0.60;0.40;;;;;;;-145.06;100.00;60892.56;4827704;28;20062;-89
2022/08/26 11:19:29;;;;;;;1.02;0.30;;;;;;;-145.06;100.00;60892.56;4858722;28;20026;-90
2022/08/26 11:22:23;;;;;;;1.35;0.60;;;;;;;-145.06;100.00;60892.56;4835400;28;20030;-90
2022/08/26 11:25:02;;;;;;;0.82;0.40;;;;;;;-145.06;100.00;60892.56;4835765;28;20518;-90
2022/08/26 11:27:49;;;;;;;1.33;0.60;;;;;;;-145.06;100.00;60892.56;4835403;28;20408;-89
2022/08/26 11:30:37;;;;;;;0.98;0.70;;;;;;;-145.06;100.00;60892.56;4837488;28;20042;-91
2022/08/26 11:33:49;;;;;;;0.88;0.60;;;;;;;-145.06;100.00;60892.56;4834089;28;20120;-90
2022/08/26 11:36:44;;;;;;;0.77;0.50;;;;;;;-145.06;100.00;60892.56;4852966;28;20073;-90
2022/08/26 11:39:46;;;;;;;0.68;0.45;;;;;;;-145.06;100.00;60892.56;4845166;28;20029;-89
2022/08/26 11:42:38;;;;;;;1.95;0.40;;;;;;;-145.06;100.00;60892.56;4856284;28;20029;-90
2022/08/26 11:45:26;;;;;;;0.60;0.40;;;;;;;-145.06;100.00;60892.56;4854943;28;20037;-89
2022/08/26 11:48:29;;;;;;;0.30;0.20;;;;;;;-145.06;100.00;60892.56;4852845;28;20112;-90
2022/08/26 11:51:12;;;;;;;0.30;0.28;;;;;;;-145.06;100.00;60892.56;4825820;28;20029;-89
2022/08/26 11:54:10;;;;;;;0.47;0.40;;;;;;;-145.06;100.00;60892.56;4835585;28;20029;-89
2022/08/26 11:56:51;;;;;;;0.82;0.50;;;;;;;-145.06;100.00;60892.56;4826134;28;20362;-89
2022/08/26 11:59:37;;;;;;;0.52;0.43;;;;;;;-145.06;100.00;60892.56;4840992;28;20034;-89
2022/08/26 12:02:16;;;;;;;1.40;0.50;;;;;;;-145.06;100.00;60892.56;4841383;28;20017;-90
2022/08/26 12:04:56;;;;;;;0.88;0.40;;;;;;;-145.06;100.00;60892.56;4836131;28;20026;-90
2022/08/26 12:07:35;;;;;;;0.80;0.60;;;;;;;-145.06;100.00;60892.56;4839838;28;20041;-89
2022/08/26 12:10:26;;;;;;;0.80;0.60;;;;;;;-145.06;100.00;60892.56;4833141;28;20037;-90
2022/08/26 12:13:06;;;;;;;0.98;0.40;;;;;;;-145.06;100.00;60892.56;4842556;28;20037;-89
2022/08/26 12:15:57;;;;;;;0.82;0.35;;;;;;;-145.06;100.00;60892.56;4845453;28;20025;-90
2022/08/26 12:18:37;;;;;;;1.17;0.50;;;;;;;-145.06;100.00;60892.56;4833254;28;20144;-90
2022/08/26 12:21:28;;;;;;;0.80;0.50;;;;;;;-145.06;100.00;60892.56;4834623;28;20033;-89
2022/08/26 12:24:07;;;;;;;0.82;0.50;;;;;;;-145.06;100.00;60892.56;4843963;28;20022;-90
2022/08/26 12:26:46;;;;;;;0.43;0.40;;;;;;;-145.06;100.00;60892.56;4840253;28;20357;-90